createdAt,value
2022-08-27T00:01:01.788Z,14.72
2022-08-27T00:03:01.803Z,14.67
2022-08-27T00:05:01.808Z,14.65
2022-08-27T00:07:01.799Z,14.68
2022-08-27T00:09:01.811Z,14.67
2022-08-27T00:11:01.816Z,14.68
2022-08-27T00:12:09.187Z,14.68
2022-08-27T00:13:29.947Z,14.68
2022-08-27T00:16:10.420Z,14.68
2022-08-27T00:17:16.161Z,14.7
2022-08-27T00:18:57.490Z,14.7
2022-08-27T00:21:57.482Z,14.71
2022-08-27T00:24:57.480Z,14.72
2022-08-27T00:27:57.500Z,14.81
2022-08-27T00:30:57.488Z,14.8
2022-08-27T00:33:57.502Z,14.81
2022-08-27T00:36:57.499Z,14.83
2022-08-27T00:39:57.521Z,14.93
2022-08-27T00:42:57.533Z,15.05
2022-08-27T00:45:57.562Z,15.04
2022-08-27T00:48:57.529Z,15.14
2022-08-27T00:51:57.545Z,15.14
2022-08-27T00:54:57.540Z,15.23
2022-08-27T00:57:57.568Z,15.32
2022-08-27T01:00:57.594Z,15.43
2022-08-27T01:03:57.552Z,15.52
2022-08-27T01:06:57.562Z,15.52
2022-08-27T01:09:57.565Z,15.61
2022-08-27T01:12:57.577Z,15.6
2022-08-27T01:15:57.614Z,15.69
2022-08-27T01:18:57.574Z,15.67
2022-08-27T01:21:57.590Z,15.77
2022-08-27T01:24:57.582Z,15.77
2022-08-27T01:27:57.602Z,15.75
2022-08-27T01:30:57.603Z,15.75
2022-08-27T01:33:57.602Z,15.74
2022-08-27T01:36:57.663Z,15.83
2022-08-27T01:39:57.954Z,15.81
2022-08-27T01:42:57.622Z,15.81
2022-08-27T01:45:57.627Z,15.91
2022-08-27T01:48:57.626Z,15.91
2022-08-27T01:51:57.648Z,15.86
2022-08-27T01:54:57.660Z,15.86
2022-08-27T01:57:57.666Z,15.94
2022-08-27T02:00:57.673Z,15.92
2022-08-27T02:03:57.648Z,15.9
2022-08-27T02:06:57.661Z,15.89
2022-08-27T02:09:57.664Z,15.97
2022-08-27T02:12:57.677Z,15.95
2022-08-27T02:15:57.703Z,15.95
2022-08-27T02:18:57.673Z,15.93
2022-08-27T02:21:57.680Z,15.92
2022-08-27T02:24:57.673Z,16.03
2022-08-27T02:27:57.695Z,16.01
2022-08-27T02:30:57.720Z,16.01
2022-08-27T02:33:57.683Z,16
2022-08-27T02:36:57.697Z,15.98
2022-08-27T02:39:57.776Z,15.98
2022-08-27T02:42:57.723Z,16.07
2022-08-27T02:45:57.693Z,16.07
2022-08-27T02:48:57.689Z,15.98
2022-08-27T02:51:57.706Z,16.07
2022-08-27T02:54:57.698Z,15.98
2022-08-27T02:57:57.719Z,16.07
2022-08-27T03:00:57.696Z,16.06
2022-08-27T03:03:57.709Z,16.07
2022-08-27T03:06:57.702Z,16.07
2022-08-27T03:09:57.714Z,15.96
2022-08-27T03:12:57.728Z,16.06
2022-08-27T03:15:57.771Z,15.96
2022-08-27T03:18:57.718Z,15.96
2022-08-27T03:21:57.709Z,15.95
2022-08-27T03:24:57.725Z,15.95
2022-08-27T03:27:57.729Z,15.84
2022-08-27T03:30:57.738Z,15.85
2022-08-27T03:33:57.722Z,15.87
2022-08-27T03:36:57.711Z,15.85
2022-08-27T03:39:57.762Z,15.87
2022-08-27T03:42:57.746Z,15.85
2022-08-27T03:46:01.218Z,15.87
2022-08-27T03:48:57.734Z,15.87
2022-08-27T03:51:57.725Z,15.77
2022-08-27T03:54:57.724Z,15.79
2022-08-27T03:57:57.746Z,15.77
2022-08-27T04:00:57.734Z,15.79
2022-08-27T04:03:57.729Z,15.79
2022-08-27T04:06:58.287Z,15.79
2022-08-27T04:09:57.727Z,15.77
2022-08-27T04:12:57.754Z,15.77
2022-08-27T04:15:57.779Z,15.76
2022-08-27T04:18:57.734Z,15.65
2022-08-27T04:21:57.746Z,15.76
2022-08-27T04:24:57.737Z,15.74
2022-08-27T04:27:57.755Z,15.67
2022-08-27T04:30:57.776Z,15.65
2022-08-27T04:33:57.752Z,15.65
2022-08-27T04:36:57.760Z,15.63
2022-08-27T04:39:57.794Z,15.63
2022-08-27T04:42:57.789Z,15.62
2022-08-27T04:45:57.904Z,15.6
2022-08-27T04:48:57.785Z,15.62
2022-08-27T04:51:57.798Z,15.54
2022-08-27T04:54:57.811Z,15.56
2022-08-27T04:57:57.830Z,15.54
2022-08-27T05:00:57.815Z,15.54
2022-08-27T05:03:57.809Z,15.54
2022-08-27T05:06:57.816Z,15.54
2022-08-27T05:09:57.829Z,15.62
2022-08-27T05:12:59.906Z,15.62
2022-08-27T05:15:57.903Z,15.6
2022-08-27T05:18:57.843Z,15.6
2022-08-27T05:21:57.852Z,15.6
2022-08-27T05:24:57.867Z,15.59
2022-08-27T05:27:57.877Z,15.66
2022-08-27T05:30:57.946Z,15.54
2022-08-27T05:33:57.912Z,15.55
2022-08-27T05:36:57.896Z,15.57
2022-08-27T05:39:57.940Z,15.57
2022-08-27T05:42:57.930Z,15.59
2022-08-27T05:45:57.981Z,15.57
2022-08-27T05:48:57.920Z,15.57
2022-08-27T05:51:57.923Z,15.57
2022-08-27T05:54:57.928Z,15.59
2022-08-27T05:57:57.951Z,15.59
2022-08-27T06:01:01.861Z,15.59
2022-08-27T06:03:57.953Z,15.6
2022-08-27T06:06:57.964Z,15.62
2022-08-27T06:09:57.968Z,15.51
2022-08-27T06:12:58.008Z,15.51
2022-08-27T06:15:58.012Z,15.53
2022-08-27T06:18:57.989Z,15.51
2022-08-27T06:22:00.602Z,15.51
2022-08-27T06:24:58.007Z,15.53
2022-08-27T06:27:58.027Z,15.43
2022-08-27T06:30:58.038Z,15.43
2022-08-27T06:33:58.037Z,15.45
2022-08-27T06:36:58.036Z,15.45
2022-08-27T06:39:58.105Z,15.43
2022-08-27T06:42:58.080Z,15.47
2022-08-27T06:45:58.123Z,15.43
2022-08-27T06:48:58.081Z,15.42
2022-08-27T06:51:58.075Z,15.43
2022-08-27T06:54:58.091Z,15.42
2022-08-27T06:57:58.132Z,15.45
2022-08-27T07:00:58.112Z,15.39
2022-08-27T07:03:58.140Z,15.4
2022-08-27T07:06:58.135Z,15.46
2022-08-27T07:09:58.147Z,15.37
2022-08-27T07:12:58.173Z,15.49
2022-08-27T07:15:58.182Z,15.46
2022-08-27T07:18:58.186Z,15.48
2022-08-27T07:21:58.181Z,15.45
2022-08-27T07:24:58.195Z,15.38
2022-08-27T07:27:58.227Z,15.4
2022-08-27T07:30:58.224Z,15.29
2022-08-27T07:33:58.231Z,15.33
2022-08-27T07:36:58.229Z,15.44
2022-08-27T07:39:58.320Z,15.46
2022-08-27T07:42:58.251Z,15.39
2022-08-27T07:45:58.298Z,15.38
2022-08-27T07:48:58.272Z,15.39
2022-08-27T07:51:58.286Z,15.47
2022-08-27T07:54:58.295Z,15.43
2022-08-27T07:57:58.303Z,15.45
2022-08-27T08:00:58.340Z,15.45
2022-08-27T08:03:58.320Z,15.45
2022-08-27T08:06:58.342Z,15.47
2022-08-27T08:09:58.356Z,15.56
2022-08-27T08:12:58.353Z,15.54
2022-08-27T08:15:58.380Z,15.47
2022-08-27T08:18:58.394Z,15.59
2022-08-27T08:22:01.424Z,15.56
2022-08-27T08:24:58.405Z,15.48
2022-08-27T08:27:58.400Z,15.48
2022-08-27T08:30:58.464Z,15.58
2022-08-27T08:33:58.418Z,15.59
2022-08-27T08:36:58.444Z,15.67
2022-08-27T08:39:58.539Z,15.6
2022-08-27T08:42:58.455Z,15.65
2022-08-27T08:45:58.555Z,15.62
2022-08-27T08:48:58.487Z,15.71
2022-08-27T08:51:58.509Z,15.75
2022-08-27T08:54:58.521Z,15.81
2022-08-27T08:57:58.528Z,15.86
2022-08-27T09:00:58.570Z,15.92
2022-08-27T09:03:58.590Z,15.83
2022-08-27T09:06:58.568Z,15.72
2022-08-27T09:09:58.575Z,15.83
2022-08-27T09:12:58.599Z,15.91
2022-08-27T09:15:58.602Z,15.89
2022-08-27T09:18:58.623Z,15.86
2022-08-27T09:21:58.619Z,15.93
2022-08-27T09:24:58.635Z,15.92
2022-08-27T09:27:58.643Z,15.91
2022-08-27T09:30:58.714Z,15.97
2022-08-27T09:33:58.681Z,16.04
2022-08-27T09:36:58.686Z,16.03
2022-08-27T09:39:58.779Z,16.05
2022-08-27T09:42:58.713Z,16.08
2022-08-27T09:45:58.794Z,16.08
2022-08-27T09:48:58.739Z,15.95
2022-08-27T09:51:58.761Z,16.04
2022-08-27T09:54:58.760Z,16.06
2022-08-27T09:57:58.773Z,16.06
2022-08-27T10:00:58.832Z,16.15
2022-08-27T10:03:58.841Z,16.14
2022-08-27T10:06:58.835Z,15.99
2022-08-27T10:09:58.841Z,15.84
2022-08-27T10:12:58.837Z,15.83
2022-08-27T10:15:58.858Z,15.83
2022-08-27T10:18:58.865Z,15.8
2022-08-27T10:21:58.890Z,15.84
2022-08-27T10:24:58.900Z,15.91
2022-08-27T10:27:58.919Z,15.86
2022-08-27T10:30:58.924Z,15.94
2022-08-27T10:33:58.951Z,15.89
2022-08-27T10:36:58.959Z,15.94
2022-08-27T10:39:59.026Z,15.89
2022-08-27T10:42:58.997Z,15.97
2022-08-27T10:45:59.018Z,16.06
2022-08-27T10:48:59.016Z,16.05
2022-08-27T10:51:59.020Z,16.2
2022-08-27T10:54:59.042Z,16.32
2022-08-27T10:58:01.125Z,16.29
2022-08-27T11:00:59.103Z,16.56
2022-08-27T11:03:59.067Z,16.54
2022-08-27T11:06:59.087Z,16.32
2022-08-27T11:09:59.097Z,16.27
2022-08-27T11:12:59.111Z,16.16
2022-08-27T11:15:59.198Z,16.01
2022-08-27T11:18:59.148Z,15.9
2022-08-27T11:21:59.155Z,15.79
2022-08-27T11:24:59.163Z,15.79
2022-08-27T11:27:59.195Z,15.69
2022-08-27T11:30:59.197Z,15.77
2022-08-27T11:33:59.225Z,15.71
2022-08-27T11:36:59.223Z,15.66
2022-08-27T11:39:59.296Z,15.6
2022-08-27T11:42:59.264Z,15.53
2022-08-27T11:45:59.271Z,15.38
2022-08-27T11:48:59.291Z,15.49
2022-08-27T11:51:59.293Z,15.37
2022-08-27T11:54:59.314Z,15.46
2022-08-27T11:57:59.329Z,15.46
2022-08-27T12:01:03.872Z,15.44
2022-08-27T12:03:59.398Z,15.48
2022-08-27T12:06:59.384Z,15.46
2022-08-27T12:09:59.390Z,15.39
2022-08-27T12:13:00.601Z,15.37
2022-08-27T12:15:59.482Z,15.39
2022-08-27T12:18:59.441Z,15.35
2022-08-27T12:21:59.443Z,15.32
2022-08-27T12:24:59.473Z,15.34
2022-08-27T12:27:59.474Z,15.16
2022-08-27T12:30:59.489Z,15.14
2022-08-27T12:33:59.524Z,15.14
2022-08-27T12:36:59.527Z,15.26
2022-08-27T12:39:59.586Z,15.28
2022-08-27T12:42:59.563Z,15.4
2022-08-27T12:45:59.581Z,15.47
2022-08-27T12:49:01.306Z,15.43
2022-08-27T12:51:59.609Z,15.35
2022-08-27T12:54:59.629Z,15.25
2022-08-27T12:57:59.644Z,15.16
2022-08-27T13:00:59.771Z,15.22
2022-08-27T13:03:59.677Z,15.1
2022-08-27T13:06:59.680Z,15.03
2022-08-27T13:09:59.717Z,15.1
2022-08-27T13:12:59.720Z,15.07
2022-08-27T13:15:59.787Z,14.98
2022-08-27T13:18:59.757Z,14.98
2022-08-27T13:21:59.775Z,14.98
2022-08-27T13:24:59.798Z,14.89
2022-08-27T13:27:59.805Z,15
2022-08-27T13:30:59.892Z,15.07
2022-08-27T13:33:59.840Z,15.26
2022-08-27T13:36:59.869Z,15.22
2022-08-27T13:39:59.905Z,15.15
2022-08-27T13:42:59.908Z,15.3
2022-08-27T13:45:59.969Z,15.2
2022-08-27T13:48:59.948Z,15.26
2022-08-27T13:51:59.951Z,15.05
2022-08-27T13:54:59.977Z,15.33
2022-08-27T13:57:59.986Z,15.05
2022-08-27T14:01:00.027Z,15.23
2022-08-27T14:04:00.019Z,15.19
2022-08-27T14:07:00.046Z,14.93
2022-08-27T14:10:00.069Z,15.14
2022-08-27T14:13:00.079Z,15.07
2022-08-27T14:16:00.219Z,15.1
2022-08-27T14:19:00.099Z,15.07
2022-08-27T14:22:00.130Z,15.23
2022-08-27T14:25:00.136Z,14.99
2022-08-27T14:28:00.151Z,15.08
2022-08-27T14:31:00.201Z,15.1
2022-08-27T14:34:00.182Z,14.94
2022-08-27T14:37:00.197Z,14.96
2022-08-27T14:40:00.449Z,14.87
2022-08-27T14:43:00.233Z,14.83
2022-08-27T14:46:00.280Z,14.88
2022-08-27T14:49:00.258Z,14.86
2022-08-27T14:52:00.279Z,14.76
2022-08-27T14:55:00.288Z,14.91
2022-08-27T14:58:00.299Z,14.9
2022-08-27T15:01:00.298Z,14.79
2022-08-27T15:04:00.320Z,14.84
2022-08-27T15:07:00.327Z,14.79
2022-08-27T15:10:00.697Z,14.82
2022-08-27T15:13:00.353Z,14.77
2022-08-27T15:16:00.442Z,14.65
2022-08-27T15:19:01.017Z,14.68
2022-08-27T15:22:00.405Z,14.63
2022-08-27T15:25:00.414Z,14.62
2022-08-27T15:28:00.441Z,14.7
2022-08-27T15:31:00.482Z,14.63
2022-08-27T15:34:00.470Z,14.63
2022-08-27T15:37:00.483Z,14.65
2022-08-27T15:40:00.683Z,14.57
2022-08-27T15:43:00.506Z,14.49
2022-08-27T15:46:00.557Z,14.67
2022-08-27T15:49:00.547Z,14.67
2022-08-27T15:52:00.551Z,14.72
2022-08-27T15:55:00.578Z,14.72
2022-08-27T15:58:00.590Z,14.57
2022-08-27T16:01:01.636Z,14.57
2022-08-27T16:04:00.625Z,14.5
2022-08-27T16:07:00.636Z,14.56
2022-08-27T16:10:00.653Z,14.57
2022-08-27T16:13:00.663Z,14.41
2022-08-27T16:16:00.712Z,14.38
2022-08-27T16:19:00.729Z,14.28
2022-08-27T16:22:00.715Z,14.2
2022-08-27T16:25:00.731Z,14.29
2022-08-27T16:28:00.740Z,14.19
2022-08-27T16:31:00.792Z,14.24
2022-08-27T16:34:00.804Z,14.18
2022-08-27T16:37:00.791Z,14.2
2022-08-27T16:40:00.879Z,14.18
2022-08-27T16:43:00.844Z,14.12
2022-08-27T16:46:00.856Z,14.15
2022-08-27T16:49:01.085Z,14.14
2022-08-27T16:52:00.879Z,14.17
2022-08-27T16:55:00.884Z,14.17
2022-08-27T16:58:00.906Z,14.2
2022-08-27T17:01:00.918Z,14.15
2022-08-27T17:04:12.830Z,14.19
2022-08-27T17:07:00.942Z,14.21
2022-08-27T17:10:05.229Z,14.25
2022-08-27T17:13:00.978Z,14.21
2022-08-27T17:16:01.120Z,14.06
2022-08-27T17:19:01.057Z,14.06
2022-08-27T17:22:01.017Z,13.9
2022-08-27T17:25:01.033Z,13.89
2022-08-27T17:28:01.064Z,13.81
2022-08-27T17:31:01.137Z,13.82
2022-08-27T17:34:01.120Z,13.76
2022-08-27T17:37:01.096Z,13.76
2022-08-27T17:40:01.165Z,13.7
2022-08-27T17:43:01.131Z,13.72
2022-08-27T17:46:01.209Z,13.69
2022-08-27T17:49:01.164Z,13.72
2022-08-27T17:52:01.312Z,13.74
2022-08-27T17:55:01.184Z,13.71
2022-08-27T17:58:01.186Z,13.71
2022-08-27T18:01:01.217Z,13.74
2022-08-27T18:04:01.257Z,13.76
2022-08-27T18:07:01.196Z,13.7
2022-08-27T18:10:01.199Z,13.68
2022-08-27T18:13:01.199Z,13.7
2022-08-27T18:16:01.208Z,13.71
2022-08-27T18:19:01.225Z,13.67
2022-08-27T18:22:01.207Z,13.68
2022-08-27T18:25:01.209Z,13.72
2022-08-27T18:28:01.209Z,13.69
2022-08-27T18:31:01.923Z,13.74
2022-08-27T18:34:01.228Z,13.71
2022-08-27T18:37:01.227Z,13.76
2022-08-27T18:40:01.238Z,13.75
2022-08-27T18:43:01.219Z,13.72
2022-08-27T18:46:01.301Z,13.69
2022-08-27T18:49:01.245Z,13.66
2022-08-27T18:52:01.231Z,13.65
2022-08-27T18:55:01.234Z,13.6
2022-08-27T18:58:01.235Z,13.65
2022-08-27T19:01:01.349Z,13.6
2022-08-27T19:04:01.255Z,13.57
2022-08-27T19:07:01.246Z,13.52
2022-08-27T19:10:01.240Z,13.56
2022-08-27T19:13:01.243Z,13.59
2022-08-27T19:16:01.242Z,13.54
2022-08-27T19:19:01.256Z,13.48
2022-08-27T19:22:05.831Z,13.52
2022-08-27T19:25:01.249Z,13.49
2022-08-27T19:28:01.252Z,13.54
2022-08-27T19:31:01.253Z,13.49
2022-08-27T19:34:01.275Z,13.54
2022-08-27T19:37:01.258Z,13.49
2022-08-27T19:40:01.305Z,13.51
2022-08-27T19:43:01.311Z,13.43
2022-08-27T19:46:01.293Z,13.41
2022-08-27T19:49:01.268Z,13.38
2022-08-27T19:52:03.976Z,13.36
2022-08-27T19:55:13.399Z,13.38
2022-08-27T19:58:01.265Z,13.32
2022-08-27T20:01:01.306Z,13.25
2022-08-27T20:04:01.321Z,13.24
2022-08-27T20:07:01.267Z,13.19
2022-08-27T20:10:01.380Z,13.1
2022-08-27T20:13:01.272Z,12.97
2022-08-27T20:16:01.344Z,12.99
2022-08-27T20:19:01.285Z,12.91
2022-08-27T20:22:01.278Z,12.78
2022-08-27T20:25:01.279Z,12.74
2022-08-27T20:28:12.408Z,12.69
2022-08-27T20:31:01.283Z,12.59
2022-08-27T20:34:01.297Z,12.52
2022-08-27T20:37:01.286Z,12.49
2022-08-27T20:40:01.328Z,12.54
2022-08-27T20:43:01.352Z,12.47
2022-08-27T20:46:01.360Z,12.3
2022-08-27T20:49:01.310Z,12.3
2022-08-27T20:52:03.500Z,12.21
2022-08-27T20:55:01.309Z,12.03
2022-08-27T20:58:05.929Z,11.99
2022-08-27T21:01:01.384Z,11.89
2022-08-27T21:04:01.330Z,11.84
2022-08-27T21:07:01.329Z,11.81
2022-08-27T21:10:01.319Z,11.8
2022-08-27T21:13:04.674Z,11.66
2022-08-27T21:16:01.415Z,11.67
2022-08-27T21:19:01.340Z,11.58
2022-08-27T21:22:05.683Z,11.51
2022-08-27T21:25:01.332Z,11.46
2022-08-27T21:28:01.336Z,11.39
2022-08-27T21:31:01.337Z,11.36
2022-08-27T21:34:01.344Z,11.28
2022-08-27T21:37:01.343Z,11.21
2022-08-27T21:40:01.399Z,11.26
2022-08-27T21:43:01.348Z,11.18
2022-08-27T21:46:01.348Z,11.22
2022-08-27T21:49:01.370Z,11.19
2022-08-27T21:52:01.361Z,11.2
2022-08-27T21:55:01.357Z,11.24
2022-08-27T21:58:01.363Z,11.16
2022-08-27T22:01:01.379Z,11.17
2022-08-27T22:04:01.381Z,11.06
2022-08-27T22:07:01.375Z,11.06
2022-08-27T22:10:01.373Z,11.09
2022-08-27T22:13:01.373Z,11.04
2022-08-27T22:16:01.416Z,11.07
2022-08-27T22:19:01.391Z,11
2022-08-27T22:22:01.382Z,11.07
2022-08-27T22:25:01.387Z,11.03
2022-08-27T22:28:01.386Z,11
2022-08-27T22:31:01.429Z,11.05
2022-08-27T22:34:01.417Z,11.06
2022-08-27T22:37:01.398Z,11.03
2022-08-27T22:40:01.437Z,11.06
2022-08-27T22:43:01.392Z,11.05
2022-08-27T22:46:01.402Z,11.01
2022-08-27T22:49:01.429Z,10.99
2022-08-27T22:52:01.410Z,11.01
2022-08-27T22:55:01.415Z,10.95
2022-08-27T22:58:01.413Z,10.97
2022-08-27T23:01:01.418Z,10.93
2022-08-27T23:04:01.555Z,10.97
2022-08-27T23:07:01.422Z,10.98
2022-08-27T23:10:01.419Z,10.95
2022-08-27T23:13:01.423Z,10.98
2022-08-27T23:16:01.550Z,10.99
2022-08-27T23:19:01.438Z,10.94
2022-08-27T23:22:01.429Z,11.03
2022-08-27T23:25:01.441Z,11.05
2022-08-27T23:28:03.714Z,11
2022-08-27T23:31:01.466Z,11
2022-08-27T23:34:01.448Z,11
2022-08-27T23:37:01.444Z,10.99
2022-08-27T23:40:01.502Z,11.01
2022-08-27T23:43:01.451Z,10.99
2022-08-27T23:46:01.509Z,10.97
2022-08-27T23:49:01.464Z,11.03
2022-08-27T23:52:01.456Z,10.97
2022-08-27T23:55:01.463Z,10.97
2022-08-27T23:58:01.473Z,10.92
